aviador You're here:

KHSE Decoded Metar

HATTERAS/MITCHEL in NC, USA
Report Time2018-01-18 20:51:00
UTC Time2018-01-18 21:32:05
Flight Rules vfr VFR
Wind280° at 09 Gusting to 17 kt
W.Decomp.*RWY 25: 6.9 kt HW 5.8 kt RCW
W.Rank280° ranks 13
Current wind is above 280° avg. (7.4)
Visibility9999 m
Phenomena:N/A
Clouds:N/A
Expected CloudBase > 3,200 ft AGL from Temp-Dew spread
CeilingNone
Temp02°C (ISA -13)
Dew Point-6°C (56% RH)
AAT-3.9°C
QNH1022 hPa
Density Alt-1,821 ft
Elevation10 ft
Report Wrong Elevation
Raw Report
METAR KHSE 182051Z AUTO 28009G17KT 10SM CLR 02/M06 A3017 RMK AO2 SLP216
T00171056 58001 TSNO=

Extra information for KHSE:More info

Metar Taf Metar & Taf Last 4 Metars F.Rules Stats Wind Profile Meteogram Temp Stats Airport Information Weather charts Add Link Nearby VenuesMetar ALERT Operation Metar Decoded Social comments

AIRNAV info for KHSE